sensor_id;sensor_type;location;lat;lon;timestamp;temperature;humidity
25945;SHT31;13742;49.306;8.636;2023-04-08T00:00:38;8.80;83.02
25945;SHT31;13742;49.306;8.636;2023-04-08T00:01:38;8.75;83.20
25945;SHT31;13742;49.306;8.636;2023-04-08T00:02:38;8.78;83.46
25945;SHT31;13742;49.306;8.636;2023-04-08T00:03:38;8.76;83.47
25945;SHT31;13742;49.306;8.636;2023-04-08T00:04:38;8.72;83.61
25945;SHT31;13742;49.306;8.636;2023-04-08T00:05:38;8.71;83.71
25945;SHT31;13742;49.306;8.636;2023-04-08T00:06:38;8.72;83.65
25945;SHT31;13742;49.306;8.636;2023-04-08T00:07:38;8.72;83.54
25945;SHT31;13742;49.306;8.636;2023-04-08T00:08:38;8.75;83.49
25945;SHT31;13742;49.306;8.636;2023-04-08T00:09:38;8.72;83.52
25945;SHT31;13742;49.306;8.636;2023-04-08T00:10:38;8.72;83.62
25945;SHT31;13742;49.306;8.636;2023-04-08T00:11:38;8.72;83.72
25945;SHT31;13742;49.306;8.636;2023-04-08T00:12:38;8.69;83.62
25945;SHT31;13742;49.306;8.636;2023-04-08T00:13:38;8.69;83.58
25945;SHT31;13742;49.306;8.636;2023-04-08T00:14:40;8.71;83.55
25945;SHT31;13742;49.306;8.636;2023-04-08T00:15:39;8.72;83.61
25945;SHT31;13742;49.306;8.636;2023-04-08T00:16:38;8.73;83.76
25945;SHT31;13742;49.306;8.636;2023-04-08T00:17:40;8.73;83.66
25945;SHT31;13742;49.306;8.636;2023-04-08T00:18:38;8.72;83.58
25945;SHT31;13742;49.306;8.636;2023-04-08T00:19:38;8.69;83.70
25945;SHT31;13742;49.306;8.636;2023-04-08T00:20:38;8.71;83.48
25945;SHT31;13742;49.306;8.636;2023-04-08T00:21:38;8.69;83.75
25945;SHT31;13742;49.306;8.636;2023-04-08T00:22:38;8.73;83.62
25945;SHT31;13742;49.306;8.636;2023-04-08T00:23:38;8.72;83.81
25945;SHT31;13742;49.306;8.636;2023-04-08T00:24:39;8.72;83.80
25945;SHT31;13742;49.306;8.636;2023-04-08T00:25:38;8.71;83.75
25945;SHT31;13742;49.306;8.636;2023-04-08T00:26:38;8.71;83.93
25945;SHT31;13742;49.306;8.636;2023-04-08T00:27:38;8.72;83.88
25945;SHT31;13742;49.306;8.636;2023-04-08T00:28:38;8.73;83.68
25945;SHT31;13742;49.306;8.636;2023-04-08T00:29:38;8.71;83.49
25945;SHT31;13742;49.306;8.636;2023-04-08T00:30:38;8.69;83.90
25945;SHT31;13742;49.306;8.636;2023-04-08T00:31:38;8.71;84.16
25945;SHT31;13742;49.306;8.636;2023-04-08T00:32:38;8.68;84.24
25945;SHT31;13742;49.306;8.636;2023-04-08T00:33:38;8.69;84.25
25945;SHT31;13742;49.306;8.636;2023-04-08T00:34:38;8.65;84.23
25945;SHT31;13742;49.306;8.636;2023-04-08T00:35:38;8.54;84.39
25945;SHT31;13742;49.306;8.636;2023-04-08T00:36:39;8.52;84.77
25945;SHT31;13742;49.306;8.636;2023-04-08T00:37:39;8.49;84.75
25945;SHT31;13742;49.306;8.636;2023-04-08T00:38:38;8.55;84.42
25945;SHT31;13742;49.306;8.636;2023-04-08T00:39:38;8.52;84.83
25945;SHT31;13742;49.306;8.636;2023-04-08T00:40:38;8.45;84.95
25945;SHT31;13742;49.306;8.636;2023-04-08T00:41:38;8.40;85.36
25945;SHT31;13742;49.306;8.636;2023-04-08T00:42:38;8.42;85.25
25945;SHT31;13742;49.306;8.636;2023-04-08T00:43:38;8.44;85.01
25945;SHT31;13742;49.306;8.636;2023-04-08T00:44:38;8.41;85.43
25945;SHT31;13742;49.306;8.636;2023-04-08T00:45:38;8.40;85.37
25945;SHT31;13742;49.306;8.636;2023-04-08T00:46:39;8.30;85.55
25945;SHT31;13742;49.306;8.636;2023-04-08T00:47:38;8.28;85.69
25945;SHT31;13742;49.306;8.636;2023-04-08T00:48:38;8.33;85.90
25945;SHT31;13742;49.306;8.636;2023-04-08T00:49:38;8.33;85.63
25945;SHT31;13742;49.306;8.636;2023-04-08T00:50:38;8.37;85.56
25945;SHT31;13742;49.306;8.636;2023-04-08T00:51:38;8.42;85.55
25945;SHT31;13742;49.306;8.636;2023-04-08T00:52:38;8.41;85.39
25945;SHT31;13742;49.306;8.636;2023-04-08T00:53:38;8.42;85.37
25945;SHT31;13742;49.306;8.636;2023-04-08T00:54:38;8.47;85.07
25945;SHT31;13742;49.306;8.636;2023-04-08T00:55:38;8.45;85.33
25945;SHT31;13742;49.306;8.636;2023-04-08T00:56:38;8.47;85.28
25945;SHT31;13742;49.306;8.636;2023-04-08T00:57:38;8.49;85.31
25945;SHT31;13742;49.306;8.636;2023-04-08T00:58:38;8.52;85.19
25945;SHT31;13742;49.306;8.636;2023-04-08T00:59:39;8.51;85.17
25945;SHT31;13742;49.306;8.636;2023-04-08T01:00:42;8.52;85.19
25945;SHT31;13742;49.306;8.636;2023-04-08T01:01:50;8.54;85.11
25945;SHT31;13742;49.306;8.636;2023-04-08T01:04:49;8.55;85.14
25945;SHT31;13742;49.306;8.636;2023-04-08T01:05:54;8.55;84.98
25945;SHT31;13742;49.306;8.636;2023-04-08T01:06:58;8.54;85.09
25945;SHT31;13742;49.306;8.636;2023-04-08T01:07:44;8.59;85.02
25945;SHT31;13742;49.306;8.636;2023-04-08T01:08:40;8.58;84.96
25945;SHT31;13742;49.306;8.636;2023-04-08T01:09:44;8.58;84.93
25945;SHT31;13742;49.306;8.636;2023-04-08T01:10:40;8.58;84.81
25945;SHT31;13742;49.306;8.636;2023-04-08T01:11:42;8.61;84.77
25945;SHT31;13742;49.306;8.636;2023-04-08T01:12:48;8.55;84.75
25945;SHT31;13742;49.306;8.636;2023-04-08T01:13:40;8.59;84.68
25945;SHT31;13742;49.306;8.636;2023-04-08T01:14:41;8.58;84.93
25945;SHT31;13742;49.306;8.636;2023-04-08T01:15:41;8.55;85.21
25945;SHT31;13742;49.306;8.636;2023-04-08T01:16:40;8.55;85.05
25945;SHT31;13742;49.306;8.636;2023-04-08T01:17:39;8.55;84.99
25945;SHT31;13742;49.306;8.636;2023-04-08T01:18:40;8.56;84.96
25945;SHT31;13742;49.306;8.636;2023-04-08T01:19:39;8.58;84.66
25945;SHT31;13742;49.306;8.636;2023-04-08T01:20:40;8.58;84.87
25945;SHT31;13742;49.306;8.636;2023-04-08T01:21:38;8.61;84.84
25945;SHT31;13742;49.306;8.636;2023-04-08T01:24:42;8.61;84.89
25945;SHT31;13742;49.306;8.636;2023-04-08T01:25:38;8.61;84.84
25945;SHT31;13742;49.306;8.636;2023-04-08T01:26:39;8.56;84.99
25945;SHT31;13742;49.306;8.636;2023-04-08T01:27:38;8.62;84.80
25945;SHT31;13742;49.306;8.636;2023-04-08T01:28:39;8.61;84.91
25945;SHT31;13742;49.306;8.636;2023-04-08T01:29:39;8.61;84.78
25945;SHT31;13742;49.306;8.636;2023-04-08T01:30:39;8.62;84.88
25945;SHT31;13742;49.306;8.636;2023-04-08T01:31:40;8.59;85.03
25945;SHT31;13742;49.306;8.636;2023-04-08T01:32:39;8.64;84.95
25945;SHT31;13742;49.306;8.636;2023-04-08T01:33:38;8.61;84.96
25945;SHT31;13742;49.306;8.636;2023-04-08T01:34:39;8.56;85.04
25945;SHT31;13742;49.306;8.636;2023-04-08T01:35:38;8.56;85.12
25945;SHT31;13742;49.306;8.636;2023-04-08T01:36:39;8.56;84.91
25945;SHT31;13742;49.306;8.636;2023-04-08T01:37:39;8.55;85.26
25945;SHT31;13742;49.306;8.636;2023-04-08T01:38:39;8.56;85.05
25945;SHT31;13742;49.306;8.636;2023-04-08T01:39:40;8.54;84.87
25945;SHT31;13742;49.306;8.636;2023-04-08T01:40:39;8.51;84.83
25945;SHT31;13742;49.306;8.636;2023-04-08T01:41:38;8.56;85.14
25945;SHT31;13742;49.306;8.636;2023-04-08T01:42:39;8.54;85.20
25945;SHT31;13742;49.306;8.636;2023-04-08T01:43:40;8.54;84.99
25945;SHT31;13742;49.306;8.636;2023-04-08T01:44:39;8.58;85.04
25945;SHT31;13742;49.306;8.636;2023-04-08T01:45:38;8.58;85.04
25945;SHT31;13742;49.306;8.636;2023-04-08T01:46:40;8.56;84.95
25945;SHT31;13742;49.306;8.636;2023-04-08T01:47:38;8.58;84.89
25945;SHT31;13742;49.306;8.636;2023-04-08T01:48:39;8.59;84.89
25945;SHT31;13742;49.306;8.636;2023-04-08T01:49:39;8.58;84.85
25945;SHT31;13742;49.306;8.636;2023-04-08T01:50:40;8.59;84.83
25945;SHT31;13742;49.306;8.636;2023-04-08T01:51:39;8.59;84.62
25945;SHT31;13742;49.306;8.636;2023-04-08T01:52:39;8.59;84.78
25945;SHT31;13742;49.306;8.636;2023-04-08T01:53:38;8.58;84.62
25945;SHT31;13742;49.306;8.636;2023-04-08T01:54:38;8.59;84.55
25945;SHT31;13742;49.306;8.636;2023-04-08T01:55:39;8.58;84.20
25945;SHT31;13742;49.306;8.636;2023-04-08T01:56:40;8.56;84.07
25945;SHT31;13742;49.306;8.636;2023-04-08T01:57:40;8.59;84.60
25945;SHT31;13742;49.306;8.636;2023-04-08T01:58:41;8.56;84.70
25945;SHT31;13742;49.306;8.636;2023-04-08T01:59:39;8.55;84.89
25945;SHT31;13742;49.306;8.636;2023-04-08T02:00:39;8.55;84.99
25945;SHT31;13742;49.306;8.636;2023-04-08T02:01:38;8.54;85.14
25945;SHT31;13742;49.306;8.636;2023-04-08T02:02:41;8.54;85.02
25945;SHT31;13742;49.306;8.636;2023-04-08T02:03:40;8.55;84.99
25945;SHT31;13742;49.306;8.636;2023-04-08T02:04:38;8.54;84.91
25945;SHT31;13742;49.306;8.636;2023-04-08T02:05:39;8.54;84.49
25945;SHT31;13742;49.306;8.636;2023-04-08T02:06:38;8.55;84.93
25945;SHT31;13742;49.306;8.636;2023-04-08T02:07:38;8.55;85.01
25945;SHT31;13742;49.306;8.636;2023-04-08T02:08:38;8.52;84.81
25945;SHT31;13742;49.306;8.636;2023-04-08T02:09:38;8.56;85.02
25945;SHT31;13742;49.306;8.636;2023-04-08T02:10:38;8.48;85.12
25945;SHT31;13742;49.306;8.636;2023-04-08T02:11:38;8.48;85.31
25945;SHT31;13742;49.306;8.636;2023-04-08T02:12:38;8.48;85.09
25945;SHT31;13742;49.306;8.636;2023-04-08T02:13:38;8.49;85.16
25945;SHT31;13742;49.306;8.636;2023-04-08T02:14:38;8.42;85.35
25945;SHT31;13742;49.306;8.636;2023-04-08T02:15:41;8.45;85.53
25945;SHT31;13742;49.306;8.636;2023-04-08T02:16:52;8.47;85.29
25945;SHT31;13742;49.306;8.636;2023-04-08T02:17:59;8.44;85.42
25945;SHT31;13742;49.306;8.636;2023-04-08T02:18:44;8.40;85.33
25945;SHT31;13742;49.306;8.636;2023-04-08T02:19:45;8.41;85.56
25945;SHT31;13742;49.306;8.636;2023-04-08T02:20:47;8.45;85.51
25945;SHT31;13742;49.306;8.636;2023-04-08T02:21:57;8.44;85.40
25945;SHT31;13742;49.306;8.636;2023-04-08T02:23:18;8.44;85.31
25945;SHT31;13742;49.306;8.636;2023-04-08T02:23:39;8.45;85.16
25945;SHT31;13742;49.306;8.636;2023-04-08T02:24:39;8.47;85.38
25945;SHT31;13742;49.306;8.636;2023-04-08T02:25:39;8.44;85.35
25945;SHT31;13742;49.306;8.636;2023-04-08T02:26:39;8.44;85.30
25945;SHT31;13742;49.306;8.636;2023-04-08T02:27:39;8.42;85.35
25945;SHT31;13742;49.306;8.636;2023-04-08T02:28:39;8.42;85.43
25945;SHT31;13742;49.306;8.636;2023-04-08T02:29:39;8.42;85.27
25945;SHT31;13742;49.306;8.636;2023-04-08T02:30:42;8.41;85.33
25945;SHT31;13742;49.306;8.636;2023-04-08T02:31:41;8.42;85.31
25945;SHT31;13742;49.306;8.636;2023-04-08T02:32:38;8.44;85.22
25945;SHT31;13742;49.306;8.636;2023-04-08T02:33:39;8.45;85.33
25945;SHT31;13742;49.306;8.636;2023-04-08T02:34:39;8.41;85.44
25945;SHT31;13742;49.306;8.636;2023-04-08T02:35:39;8.41;85.55
25945;SHT31;13742;49.306;8.636;2023-04-08T02:36:40;8.42;85.51
25945;SHT31;13742;49.306;8.636;2023-04-08T02:37:38;8.40;85.63
25945;SHT31;13742;49.306;8.636;2023-04-08T02:38:38;8.42;85.37
25945;SHT31;13742;49.306;8.636;2023-04-08T02:39:38;8.44;85.30
25945;SHT31;13742;49.306;8.636;2023-04-08T02:40:38;8.45;85.43
25945;SHT31;13742;49.306;8.636;2023-04-08T02:41:38;8.44;85.17
25945;SHT31;13742;49.306;8.636;2023-04-08T02:42:38;8.45;85.46
25945;SHT31;13742;49.306;8.636;2023-04-08T02:43:38;8.45;85.43
25945;SHT31;13742;49.306;8.636;2023-04-08T02:44:38;8.47;85.40
25945;SHT31;13742;49.306;8.636;2023-04-08T02:45:40;8.44;85.39
25945;SHT31;13742;49.306;8.636;2023-04-08T02:46:38;8.45;85.45
25945;SHT31;13742;49.306;8.636;2023-04-08T02:47:38;8.45;85.34
25945;SHT31;13742;49.306;8.636;2023-04-08T02:48:38;8.47;85.44
25945;SHT31;13742;49.306;8.636;2023-04-08T02:49:38;8.45;85.43
25945;SHT31;13742;49.306;8.636;2023-04-08T02:50:39;8.44;85.27
25945;SHT31;13742;49.306;8.636;2023-04-08T02:51:38;8.45;85.29
25945;SHT31;13742;49.306;8.636;2023-04-08T02:52:38;8.44;85.29
25945;SHT31;13742;49.306;8.636;2023-04-08T02:53:38;8.47;85.46
25945;SHT31;13742;49.306;8.636;2023-04-08T02:54:38;8.47;85.31
25945;SHT31;13742;49.306;8.636;2023-04-08T02:55:39;8.45;85.46
25945;SHT31;13742;49.306;8.636;2023-04-08T02:56:38;8.44;85.45
25945;SHT31;13742;49.306;8.636;2023-04-08T02:57:39;8.44;85.38
25945;SHT31;13742;49.306;8.636;2023-04-08T02:58:38;8.42;85.33
25945;SHT31;13742;49.306;8.636;2023-04-08T02:59:39;8.44;85.38
25945;SHT31;13742;49.306;8.636;2023-04-08T03:00:38;8.42;85.35
25945;SHT31;13742;49.306;8.636;2023-04-08T03:01:38;8.40;85.47
25945;SHT31;13742;49.306;8.636;2023-04-08T03:02:38;8.42;85.46
25945;SHT31;13742;49.306;8.636;2023-04-08T03:03:38;8.38;85.51
25945;SHT31;13742;49.306;8.636;2023-04-08T03:04:38;8.42;85.76
25945;SHT31;13742;49.306;8.636;2023-04-08T03:05:38;8.40;85.58
25945;SHT31;13742;49.306;8.636;2023-04-08T03:06:38;8.38;85.74
25945;SHT31;13742;49.306;8.636;2023-04-08T03:07:38;8.42;85.66
25945;SHT31;13742;49.306;8.636;2023-04-08T03:08:38;8.41;85.67
25945;SHT31;13742;49.306;8.636;2023-04-08T03:09:38;8.38;85.73
25945;SHT31;13742;49.306;8.636;2023-04-08T03:10:38;8.41;85.81
25945;SHT31;13742;49.306;8.636;2023-04-08T03:11:38;8.40;85.73
25945;SHT31;13742;49.306;8.636;2023-04-08T03:12:38;8.40;85.74
25945;SHT31;13742;49.306;8.636;2023-04-08T03:13:38;8.40;85.64
25945;SHT31;13742;49.306;8.636;2023-04-08T03:14:38;8.40;85.69
25945;SHT31;13742;49.306;8.636;2023-04-08T03:15:38;8.40;85.65
25945;SHT31;13742;49.306;8.636;2023-04-08T03:16:38;8.41;85.62
25945;SHT31;13742;49.306;8.636;2023-04-08T03:17:38;8.38;85.82
25945;SHT31;13742;49.306;8.636;2023-04-08T03:18:38;8.38;85.91
25945;SHT31;13742;49.306;8.636;2023-04-08T03:19:38;8.37;85.78
25945;SHT31;13742;49.306;8.636;2023-04-08T03:20:38;8.40;85.56
25945;SHT31;13742;49.306;8.636;2023-04-08T03:21:38;8.37;85.62
25945;SHT31;13742;49.306;8.636;2023-04-08T03:22:38;8.34;85.71
25945;SHT31;13742;49.306;8.636;2023-04-08T03:23:38;8.38;85.87
25945;SHT31;13742;49.306;8.636;2023-04-08T03:24:39;8.34;85.69
25945;SHT31;13742;49.306;8.636;2023-04-08T03:25:38;8.35;85.74
25945;SHT31;13742;49.306;8.636;2023-04-08T03:26:38;8.35;85.84
25945;SHT31;13742;49.306;8.636;2023-04-08T03:27:38;8.34;85.76
25945;SHT31;13742;49.306;8.636;2023-04-08T03:28:38;8.35;85.76
25945;SHT31;13742;49.306;8.636;2023-04-08T03:29:38;8.34;85.69
25945;SHT31;13742;49.306;8.636;2023-04-08T03:30:38;8.37;85.42
25945;SHT31;13742;49.306;8.636;2023-04-08T03:31:39;8.34;85.62
25945;SHT31;13742;49.306;8.636;2023-04-08T03:32:38;8.33;85.32
25945;SHT31;13742;49.306;8.636;2023-04-08T03:33:38;8.34;85.23
25945;SHT31;13742;49.306;8.636;2023-04-08T03:34:38;8.31;85.17
25945;SHT31;13742;49.306;8.636;2023-04-08T03:35:38;8.33;85.11
25945;SHT31;13742;49.306;8.636;2023-04-08T03:36:38;8.33;84.95
25945;SHT31;13742;49.306;8.636;2023-04-08T03:37:38;8.30;84.81
25945;SHT31;13742;49.306;8.636;2023-04-08T03:38:38;8.28;85.05
25945;SHT31;13742;49.306;8.636;2023-04-08T03:39:38;8.33;84.99
25945;SHT31;13742;49.306;8.636;2023-04-08T03:40:38;8.31;85.08
25945;SHT31;13742;49.306;8.636;2023-04-08T03:41:38;8.30;85.23
25945;SHT31;13742;49.306;8.636;2023-04-08T03:42:38;8.25;85.09
25945;SHT31;13742;49.306;8.636;2023-04-08T03:43:38;8.25;84.95
25945;SHT31;13742;49.306;8.636;2023-04-08T03:44:38;8.27;84.85
25945;SHT31;13742;49.306;8.636;2023-04-08T03:45:38;8.25;84.66
25945;SHT31;13742;49.306;8.636;2023-04-08T03:46:38;8.24;84.76
25945;SHT31;13742;49.306;8.636;2023-04-08T03:47:38;8.24;84.74
25945;SHT31;13742;49.306;8.636;2023-04-08T03:48:38;8.24;84.73
25945;SHT31;13742;49.306;8.636;2023-04-08T03:49:38;8.23;84.59
25945;SHT31;13742;49.306;8.636;2023-04-08T03:50:38;8.24;84.59
25945;SHT31;13742;49.306;8.636;2023-04-08T03:51:38;8.21;84.46
25945;SHT31;13742;49.306;8.636;2023-04-08T03:52:38;8.20;84.41
25945;SHT31;13742;49.306;8.636;2023-04-08T03:53:38;8.17;84.35
25945;SHT31;13742;49.306;8.636;2023-04-08T03:54:38;8.18;84.68
25945;SHT31;13742;49.306;8.636;2023-04-08T03:55:38;8.17;84.49
25945;SHT31;13742;49.306;8.636;2023-04-08T03:56:38;8.17;84.83
25945;SHT31;13742;49.306;8.636;2023-04-08T03:57:38;8.13;84.86
25945;SHT31;13742;49.306;8.636;2023-04-08T03:58:38;8.13;84.70
25945;SHT31;13742;49.306;8.636;2023-04-08T03:59:40;8.13;84.65
25945;SHT31;13742;49.306;8.636;2023-04-08T04:00:38;8.13;84.61
25945;SHT31;13742;49.306;8.636;2023-04-08T04:01:38;8.10;84.55
25945;SHT31;13742;49.306;8.636;2023-04-08T04:02:38;8.07;84.52
25945;SHT31;13742;49.306;8.636;2023-04-08T04:03:38;8.06;84.37
25945;SHT31;13742;49.306;8.636;2023-04-08T04:04:38;8.06;84.39
25945;SHT31;13742;49.306;8.636;2023-04-08T04:05:39;8.06;84.23
25945;SHT31;13742;49.306;8.636;2023-04-08T04:06:38;8.02;84.14
25945;SHT31;13742;49.306;8.636;2023-04-08T04:07:38;8.02;84.06
25945;SHT31;13742;49.306;8.636;2023-04-08T04:08:38;8.02;84.06
25945;SHT31;13742;49.306;8.636;2023-04-08T04:09:38;7.99;84.20
25945;SHT31;13742;49.306;8.636;2023-04-08T04:10:38;7.97;84.22
25945;SHT31;13742;49.306;8.636;2023-04-08T04:11:38;7.96;84.09
25945;SHT31;13742;49.306;8.636;2023-04-08T04:12:38;7.96;84.36
25945;SHT31;13742;49.306;8.636;2023-04-08T04:13:38;7.94;84.24
25945;SHT31;13742;49.306;8.636;2023-04-08T04:14:38;7.94;84.46
25945;SHT31;13742;49.306;8.636;2023-04-08T04:15:39;7.93;84.48
25945;SHT31;13742;49.306;8.636;2023-04-08T04:16:38;7.93;84.59
25945;SHT31;13742;49.306;8.636;2023-04-08T04:17:38;7.90;84.74
25945;SHT31;13742;49.306;8.636;2023-04-08T04:18:38;7.89;85.06
25945;SHT31;13742;49.306;8.636;2023-04-08T04:19:38;7.89;85.08
25945;SHT31;13742;49.306;8.636;2023-04-08T04:20:40;7.88;84.99
25945;SHT31;13742;49.306;8.636;2023-04-08T04:21:38;7.89;85.00
25945;SHT31;13742;49.306;8.636;2023-04-08T04:22:38;7.85;84.92
25945;SHT31;13742;49.306;8.636;2023-04-08T04:23:38;7.86;85.08
25945;SHT31;13742;49.306;8.636;2023-04-08T04:24:38;7.83;85.14
25945;SHT31;13742;49.306;8.636;2023-04-08T04:25:41;7.85;85.24
25945;SHT31;13742;49.306;8.636;2023-04-08T04:26:41;7.85;85.37
25945;SHT31;13742;49.306;8.636;2023-04-08T04:27:38;7.82;85.48
25945;SHT31;13742;49.306;8.636;2023-04-08T04:28:38;7.76;85.80
25945;SHT31;13742;49.306;8.636;2023-04-08T04:29:39;7.79;85.97
25945;SHT31;13742;49.306;8.636;2023-04-08T04:30:39;7.75;85.87
25945;SHT31;13742;49.306;8.636;2023-04-08T04:31:38;7.73;85.99
25945;SHT31;13742;49.306;8.636;2023-04-08T04:32:38;7.75;86.10
25945;SHT31;13742;49.306;8.636;2023-04-08T04:33:38;7.72;86.09
25945;SHT31;13742;49.306;8.636;2023-04-08T04:34:38;7.70;85.96
25945;SHT31;13742;49.306;8.636;2023-04-08T04:35:38;7.69;86.08
25945;SHT31;13742;49.306;8.636;2023-04-08T04:36:38;7.67;86.23
25945;SHT31;13742;49.306;8.636;2023-04-08T04:37:38;7.67;86.18
25945;SHT31;13742;49.306;8.636;2023-04-08T04:38:38;7.66;86.17
25945;SHT31;13742;49.306;8.636;2023-04-08T04:39:38;7.66;86.12
25945;SHT31;13742;49.306;8.636;2023-04-08T04:40:38;7.61;86.00
25945;SHT31;13742;49.306;8.636;2023-04-08T04:41:39;7.62;86.36
25945;SHT31;13742;49.306;8.636;2023-04-08T04:42:38;7.63;86.34
25945;SHT31;13742;49.306;8.636;2023-04-08T04:43:38;7.61;86.39
25945;SHT31;13742;49.306;8.636;2023-04-08T04:44:38;7.58;86.56
25945;SHT31;13742;49.306;8.636;2023-04-08T04:45:38;7.62;86.51
25945;SHT31;13742;49.306;8.636;2023-04-08T04:46:38;7.59;86.40
25945;SHT31;13742;49.306;8.636;2023-04-08T04:47:38;7.61;86.32
25945;SHT31;13742;49.306;8.636;2023-04-08T04:48:38;7.59;86.43
25945;SHT31;13742;49.306;8.636;2023-04-08T04:49:39;7.61;86.34
25945;SHT31;13742;49.306;8.636;2023-04-08T04:50:38;7.62;86.39
25945;SHT31;13742;49.306;8.636;2023-04-08T04:51:38;7.61;86.23
25945;SHT31;13742;49.306;8.636;2023-04-08T04:52:38;7.62;86.34
25945;SHT31;13742;49.306;8.636;2023-04-08T04:53:38;7.62;85.99
25945;SHT31;13742;49.306;8.636;2023-04-08T04:54:38;7.63;85.80
25945;SHT31;13742;49.306;8.636;2023-04-08T04:55:38;7.63;85.84
25945;SHT31;13742;49.306;8.636;2023-04-08T04:56:38;7.61;85.73
25945;SHT31;13742;49.306;8.636;2023-04-08T04:57:38;7.65;85.66
25945;SHT31;13742;49.306;8.636;2023-04-08T04:58:38;7.63;85.51
25945;SHT31;13742;49.306;8.636;2023-04-08T04:59:38;7.66;85.75
25945;SHT31;13742;49.306;8.636;2023-04-08T05:00:38;7.67;85.97
25945;SHT31;13742;49.306;8.636;2023-04-08T05:01:40;7.67;85.76
25945;SHT31;13742;49.306;8.636;2023-04-08T05:02:38;7.69;85.76
25945;SHT31;13742;49.306;8.636;2023-04-08T05:03:38;7.70;85.79
25945;SHT31;13742;49.306;8.636;2023-04-08T05:04:38;7.69;85.62
25945;SHT31;13742;49.306;8.636;2023-04-08T05:05:38;7.70;85.44
25945;SHT31;13742;49.306;8.636;2023-04-08T05:06:38;7.69;85.84
25945;SHT31;13742;49.306;8.636;2023-04-08T05:07:38;7.67;85.77
25945;SHT31;13742;49.306;8.636;2023-04-08T05:08:38;7.73;86.11
25945;SHT31;13742;49.306;8.636;2023-04-08T05:09:38;7.69;86.13
25945;SHT31;13742;49.306;8.636;2023-04-08T05:10:39;7.70;86.28
25945;SHT31;13742;49.306;8.636;2023-04-08T05:11:38;7.69;86.39
25945;SHT31;13742;49.306;8.636;2023-04-08T05:12:38;7.67;86.36
25945;SHT31;13742;49.306;8.636;2023-04-08T05:13:38;7.67;86.11
25945;SHT31;13742;49.306;8.636;2023-04-08T05:14:38;7.67;86.02
25945;SHT31;13742;49.306;8.636;2023-04-08T05:15:38;7.67;86.17
25945;SHT31;13742;49.306;8.636;2023-04-08T05:16:38;7.66;86.02
25945;SHT31;13742;49.306;8.636;2023-04-08T05:17:38;7.66;86.19
25945;SHT31;13742;49.306;8.636;2023-04-08T05:18:38;7.69;86.38
25945;SHT31;13742;49.306;8.636;2023-04-08T05:19:38;7.70;86.29
25945;SHT31;13742;49.306;8.636;2023-04-08T05:20:38;7.78;86.38
25945;SHT31;13742;49.306;8.636;2023-04-08T05:21:38;7.81;86.08
25945;SHT31;13742;49.306;8.636;2023-04-08T05:22:38;7.85;85.88
25945;SHT31;13742;49.306;8.636;2023-04-08T05:23:38;7.86;85.72
25945;SHT31;13742;49.306;8.636;2023-04-08T05:24:38;7.88;85.55
25945;SHT31;13742;49.306;8.636;2023-04-08T05:25:38;7.86;85.33
25945;SHT31;13742;49.306;8.636;2023-04-08T05:26:38;7.89;85.33
25945;SHT31;13742;49.306;8.636;2023-04-08T05:27:39;7.89;85.19
25945;SHT31;13742;49.306;8.636;2023-04-08T05:28:38;7.88;85.22
25945;SHT31;13742;49.306;8.636;2023-04-08T05:29:38;7.86;85.08
25945;SHT31;13742;49.306;8.636;2023-04-08T05:30:38;7.88;85.17
25945;SHT31;13742;49.306;8.636;2023-04-08T05:31:38;7.90;85.40
25945;SHT31;13742;49.306;8.636;2023-04-08T05:32:38;7.90;85.59
25945;SHT31;13742;49.306;8.636;2023-04-08T05:33:38;7.89;85.38
25945;SHT31;13742;49.306;8.636;2023-04-08T05:34:38;7.93;85.08
25945;SHT31;13742;49.306;8.636;2023-04-08T05:35:38;7.89;85.31
25945;SHT31;13742;49.306;8.636;2023-04-08T05:36:38;7.92;85.75
25945;SHT31;13742;49.306;8.636;2023-04-08T05:37:38;7.90;85.62
25945;SHT31;13742;49.306;8.636;2023-04-08T05:38:38;7.93;85.50
25945;SHT31;13742;49.306;8.636;2023-04-08T05:39:38;7.93;85.76
25945;SHT31;13742;49.306;8.636;2023-04-08T05:40:38;7.94;85.52
25945;SHT31;13742;49.306;8.636;2023-04-08T05:41:38;7.96;85.85
25945;SHT31;13742;49.306;8.636;2023-04-08T05:42:38;7.96;85.73
25945;SHT31;13742;49.306;8.636;2023-04-08T05:43:38;7.94;85.96
25945;SHT31;13742;49.306;8.636;2023-04-08T05:44:40;7.97;86.00
25945;SHT31;13742;49.306;8.636;2023-04-08T05:45:38;7.94;86.02
25945;SHT31;13742;49.306;8.636;2023-04-08T05:46:38;7.93;85.98
25945;SHT31;13742;49.306;8.636;2023-04-08T05:47:38;7.97;86.14
25945;SHT31;13742;49.306;8.636;2023-04-08T05:48:38;7.97;86.15
25945;SHT31;13742;49.306;8.636;2023-04-08T05:49:38;7.96;86.11
25945;SHT31;13742;49.306;8.636;2023-04-08T05:50:38;7.97;85.93
25945;SHT31;13742;49.306;8.636;2023-04-08T05:51:38;7.96;85.76
25945;SHT31;13742;49.306;8.636;2023-04-08T05:52:42;7.97;85.81
25945;SHT31;13742;49.306;8.636;2023-04-08T05:53:38;7.97;85.77
25945;SHT31;13742;49.306;8.636;2023-04-08T05:54:41;7.97;85.43
25945;SHT31;13742;49.306;8.636;2023-04-08T05:55:39;8.00;85.38
25945;SHT31;13742;49.306;8.636;2023-04-08T05:56:38;8.00;85.31
25945;SHT31;13742;49.306;8.636;2023-04-08T05:57:38;8.00;85.45
25945;SHT31;13742;49.306;8.636;2023-04-08T05:58:38;8.03;85.71
25945;SHT31;13742;49.306;8.636;2023-04-08T05:59:38;8.02;85.75
25945;SHT31;13742;49.306;8.636;2023-04-08T06:00:38;8.04;86.16
25945;SHT31;13742;49.306;8.636;2023-04-08T06:01:38;8.04;85.94
25945;SHT31;13742;49.306;8.636;2023-04-08T06:02:38;8.04;85.81
25945;SHT31;13742;49.306;8.636;2023-04-08T06:03:38;8.04;86.37
25945;SHT31;13742;49.306;8.636;2023-04-08T06:04:38;8.07;86.08
25945;SHT31;13742;49.306;8.636;2023-04-08T06:05:38;8.09;86.07
25945;SHT31;13742;49.306;8.636;2023-04-08T06:06:39;8.09;86.01
25945;SHT31;13742;49.306;8.636;2023-04-08T06:07:38;8.10;86.41
25945;SHT31;13742;49.306;8.636;2023-04-08T06:08:38;8.09;85.93
25945;SHT31;13742;49.306;8.636;2023-04-08T06:09:38;8.10;86.08
25945;SHT31;13742;49.306;8.636;2023-04-08T06:10:38;8.12;86.17
25945;SHT31;13742;49.306;8.636;2023-04-08T06:11:38;8.13;86.03
25945;SHT31;13742;49.306;8.636;2023-04-08T06:12:38;8.13;86.42
25945;SHT31;13742;49.306;8.636;2023-04-08T06:13:38;8.09;87.00
25945;SHT31;13742;49.306;8.636;2023-04-08T06:14:38;8.10;87.09
25945;SHT31;13742;49.306;8.636;2023-04-08T06:15:38;8.10;86.77
25945;SHT31;13742;49.306;8.636;2023-04-08T06:16:38;8.13;87.11
25945;SHT31;13742;49.306;8.636;2023-04-08T06:17:38;8.12;87.19
25945;SHT31;13742;49.306;8.636;2023-04-08T06:18:38;8.13;87.15
25945;SHT31;13742;49.306;8.636;2023-04-08T06:19:38;8.12;87.12
25945;SHT31;13742;49.306;8.636;2023-04-08T06:20:38;8.12;87.34
25945;SHT31;13742;49.306;8.636;2023-04-08T06:21:38;8.12;87.50
25945;SHT31;13742;49.306;8.636;2023-04-08T06:22:38;8.09;87.57
25945;SHT31;13742;49.306;8.636;2023-04-08T06:23:38;8.12;87.36
25945;SHT31;13742;49.306;8.636;2023-04-08T06:24:38;8.14;87.50
25945;SHT31;13742;49.306;8.636;2023-04-08T06:25:38;8.13;87.68
25945;SHT31;13742;49.306;8.636;2023-04-08T06:26:38;8.13;87.76
25945;SHT31;13742;49.306;8.636;2023-04-08T06:27:38;8.16;87.89
25945;SHT31;13742;49.306;8.636;2023-04-08T06:28:38;8.12;87.73